createdAt,value
2023-06-29T00:00:31.059Z,101342.13
2023-06-29T00:01:34.316Z,101337.66
2023-06-29T00:02:36.201Z,101343.88
2023-06-29T00:03:37.954Z,101347.34
2023-06-29T00:04:39.674Z,101350.84
2023-06-29T00:05:41.616Z,101342.84
2023-06-29T00:06:43.560Z,101346.38
2023-06-29T00:07:45.265Z,101349.09
2023-06-29T00:08:46.946Z,101346.44
2023-06-29T00:09:48.936Z,101342.88
2023-06-29T00:10:51.013Z,101352.63
2023-06-29T00:11:52.621Z,101352.66
2023-06-29T00:12:55.713Z,101354.44
2023-06-29T00:13:57.436Z,101354.44
2023-06-29T00:14:59.144Z,101354.41
2023-06-29T00:16:01.196Z,101349.09
2023-06-29T00:17:04.550Z,101348.16
2023-06-29T00:18:06.249Z,101359.63
2023-06-29T00:19:08.036Z,101351.53
2023-06-29T00:20:10.002Z,101354.19
2023-06-29T00:21:11.791Z,101355.09
2023-06-29T00:22:15.830Z,101352.47
2023-06-29T00:23:17.417Z,101351.53
2023-06-29T00:24:19.037Z,101348.00
2023-06-29T00:25:20.719Z,101351.53
2023-06-29T00:26:22.334Z,101350.59
2023-06-29T00:27:24.169Z,101347.84
2023-06-29T00:28:25.945Z,101350.50
2023-06-29T00:29:29.200Z,101345.19
2023-06-29T00:30:31.818Z,101343.41
2023-06-29T00:31:34.159Z,101346.09
2023-06-29T00:32:37.362Z,101342.53
2023-06-29T00:33:39.397Z,101343.47
2023-06-29T00:34:41.002Z,101337.31
2023-06-29T00:35:42.905Z,101344.38
2023-06-29T00:36:44.747Z,101339.97
2023-06-29T00:37:46.842Z,101339.03
2023-06-29T00:38:48.530Z,101347.91
2023-06-29T00:39:51.573Z,101342.59
2023-06-29T00:40:53.269Z,101339.97
2023-06-29T00:41:55.734Z,101342.63
2023-06-29T00:42:57.400Z,101336.38
2023-06-29T00:43:59.012Z,101336.38
2023-06-29T00:45:00.726Z,101333.72
2023-06-29T00:46:02.457Z,101335.50
2023-06-29T00:47:05.330Z,101337.25
2023-06-29T00:48:08.504Z,101331.91
2023-06-29T00:49:10.330Z,101332.75
2023-06-29T00:50:12.904Z,101333.59
2023-06-29T00:51:16.467Z,101329.16
2023-06-29T00:52:18.521Z,101333.56
2023-06-29T00:53:20.328Z,101324.72
2023-06-29T00:54:23.878Z,101326.50
2023-06-29T00:55:25.825Z,101322.00
2023-06-29T00:56:30.044Z,101323.69
2023-06-29T00:57:31.709Z,101323.53
2023-06-29T00:58:33.396Z,101324.34
2023-06-29T00:59:35.217Z,101328.81
2023-06-29T01:00:38.344Z,101323.56
2023-06-29T01:01:42.223Z,101328.00
2023-06-29T01:02:44.173Z,101329.75
2023-06-29T01:03:48.579Z,101324.47
2023-06-29T01:04:50.300Z,101318.25
2023-06-29T01:06:02.187Z,101323.50
2023-06-29T01:07:10.749Z,101321.69
2023-06-29T01:08:17.565Z,101319.09
2023-06-29T01:09:19.429Z,101317.38
2023-06-29T01:10:25.756Z,101316.53
2023-06-29T01:11:30.033Z,101315.66
2023-06-29T01:12:34.227Z,101303.25
2023-06-29T01:13:39.608Z,101304.16
2023-06-29T01:14:42.970Z,101307.72
2023-06-29T01:15:46.648Z,101304.19
2023-06-29T01:16:49.659Z,101309.53
2023-06-29T01:17:54.471Z,101313.09
2023-06-29T01:18:59.018Z,101310.38
2023-06-29T01:20:02.434Z,101312.06
2023-06-29T01:21:05.101Z,101309.34
2023-06-29T01:22:13.341Z,101321.69
2023-06-29T01:23:23.008Z,101312.84
2023-06-29T01:24:27.929Z,101308.41
2023-06-29T01:25:31.070Z,101311.88
2023-06-29T01:26:33.307Z,101310.94
2023-06-29T01:27:35.724Z,101310.94
2023-06-29T01:28:37.355Z,101303.88
2023-06-29T01:29:39.012Z,101308.34
2023-06-29T01:30:40.943Z,101311.00
2023-06-29T01:31:42.612Z,101305.69
2023-06-29T01:32:44.362Z,101306.56
2023-06-29T01:33:46.641Z,101306.53
2023-06-29T01:34:48.806Z,101306.41
2023-06-29T01:35:54.783Z,101301.97
2023-06-29T01:37:00.985Z,101291.47
2023-06-29T01:38:07.901Z,101296.72
2023-06-29T01:39:17.407Z,101294.94
2023-06-29T01:40:21.935Z,101295.84
2023-06-29T01:41:26.582Z,101293.25
2023-06-29T01:42:34.036Z,101298.47
2023-06-29T01:43:36.686Z,101295.78
2023-06-29T01:44:38.525Z,101296.66
2023-06-29T01:45:42.413Z,101298.41
2023-06-29T01:46:45.021Z,101298.44
2023-06-29T01:47:47.883Z,101299.31
2023-06-29T01:48:50.930Z,101295.78
2023-06-29T01:49:52.652Z,101299.38
2023-06-29T01:50:54.619Z,101302.03
2023-06-29T01:51:56.385Z,101299.38
2023-06-29T01:52:58.164Z,101299.31
2023-06-29T01:53:59.799Z,101299.31
2023-06-29T01:55:01.534Z,101307.34
2023-06-29T01:56:03.398Z,101289.66
2023-06-29T01:57:07.943Z,101294.94
2023-06-29T01:58:10.627Z,101303.78
2023-06-29T01:59:12.281Z,101297.59
2023-06-29T02:00:14.844Z,101297.63
2023-06-29T02:01:16.725Z,101290.53
2023-06-29T02:02:18.658Z,101300.31
2023-06-29T02:03:20.718Z,101296.78
2023-06-29T02:04:22.534Z,101299.44
2023-06-29T02:05:24.533Z,101295.88
2023-06-29T02:06:26.189Z,101299.38
2023-06-29T02:07:28.052Z,101302.03
2023-06-29T02:08:29.698Z,101291.34
2023-06-29T02:09:31.397Z,101293.13
2023-06-29T02:10:32.997Z,101295.78
2023-06-29T02:11:37.548Z,101299.31
2023-06-29T02:12:41.021Z,101294.88
2023-06-29T02:13:43.565Z,101294.00
2023-06-29T02:14:45.286Z,101302.03
2023-06-29T02:15:47.092Z,101299.38
2023-06-29T02:16:49.192Z,101302.88
2023-06-29T02:17:50.831Z,101302.84
2023-06-29T02:18:52.611Z,101298.38
2023-06-29T02:19:54.213Z,101301.78
2023-06-29T02:20:57.543Z,101302.66
2023-06-29T02:21:59.152Z,101294.69
2023-06-29T02:23:00.749Z,101300.00
2023-06-29T02:24:02.328Z,101305.25
2023-06-29T02:25:04.583Z,101307.91
2023-06-29T02:26:08.638Z,101309.72
2023-06-29T02:27:11.665Z,101307.91
2023-06-29T02:28:14.698Z,101310.56
2023-06-29T02:29:16.409Z,101306.13
2023-06-29T02:30:19.552Z,101309.56
2023-06-29T02:31:21.216Z,101314.88
2023-06-29T02:32:25.043Z,101319.28
2023-06-29T02:33:26.735Z,101317.41
2023-06-29T02:34:28.540Z,101310.25
2023-06-29T02:35:30.271Z,101305.81
2023-06-29T02:36:31.841Z,101303.22
2023-06-29T02:37:33.612Z,101309.44
2023-06-29T02:38:35.331Z,101312.00
2023-06-29T02:39:36.960Z,101307.59
2023-06-29T02:40:38.587Z,101307.66
2023-06-29T02:41:40.359Z,101310.34
2023-06-29T02:42:42.451Z,101306.84
2023-06-29T02:43:47.323Z,101311.28
2023-06-29T02:44:49.057Z,101307.81
2023-06-29T02:45:50.783Z,101309.66
2023-06-29T02:46:53.933Z,101310.56
2023-06-29T02:47:55.574Z,101307.03
2023-06-29T02:48:57.481Z,101300.75
2023-06-29T02:49:59.500Z,101312.97
2023-06-29T02:51:01.859Z,101308.38
2023-06-29T02:52:03.849Z,101310.97
2023-06-29T02:53:05.536Z,101310.13
2023-06-29T02:54:07.700Z,101303.97
2023-06-29T02:55:09.652Z,101303.03
2023-06-29T02:56:11.334Z,101309.13
2023-06-29T02:57:13.029Z,101308.22
2023-06-29T02:58:14.618Z,101313.53
2023-06-29T02:59:17.876Z,101310.06
2023-06-29T03:00:20.194Z,101308.31
2023-06-29T03:01:21.896Z,101316.25
2023-06-29T03:02:23.614Z,101312.66
2023-06-29T03:03:25.649Z,101311.84
2023-06-29T03:04:27.329Z,101305.66
2023-06-29T03:05:29.486Z,101306.53
2023-06-29T03:06:31.196Z,101303.97
2023-06-29T03:07:33.222Z,101314.56
2023-06-29T03:08:36.544Z,101303.09
2023-06-29T03:09:38.145Z,101306.53
2023-06-29T03:10:39.868Z,101309.06
2023-06-29T03:11:41.496Z,101311.63
2023-06-29T03:12:43.308Z,101310.66
2023-06-29T03:13:44.960Z,101310.66
2023-06-29T03:14:47.979Z,101306.22
2023-06-29T03:15:49.578Z,101318.59
2023-06-29T03:16:51.303Z,101313.34
2023-06-29T03:17:53.030Z,101312.50
2023-06-29T03:18:54.870Z,101320.59
2023-06-29T03:19:56.626Z,101319.81
2023-06-29T03:20:58.286Z,101313.69
2023-06-29T03:21:59.948Z,101315.53
2023-06-29T03:23:01.628Z,101312.91
2023-06-29T03:24:03.547Z,101305.00
2023-06-29T03:25:06.820Z,101313.84
2023-06-29T03:26:08.556Z,101302.34
2023-06-29T03:27:10.140Z,101308.53
2023-06-29T03:28:11.805Z,101307.53
2023-06-29T03:29:13.532Z,101304.84
2023-06-29T03:30:16.933Z,101303.97
2023-06-29T03:31:18.760Z,101321.66
2023-06-29T03:32:21.021Z,101307.56
2023-06-29T03:33:22.683Z,101312.91
2023-06-29T03:34:24.320Z,101304.09
2023-06-29T03:35:25.984Z,101311.19
2023-06-29T03:36:27.615Z,101313.91
2023-06-29T03:37:29.153Z,101313.91
2023-06-29T03:38:30.862Z,101312.19
2023-06-29T03:39:32.776Z,101312.22
2023-06-29T03:40:34.481Z,101307.78
2023-06-29T03:41:36.282Z,101303.31
2023-06-29T03:42:37.870Z,101302.50
2023-06-29T03:43:39.465Z,101300.84
2023-06-29T03:44:41.080Z,101305.25
2023-06-29T03:45:44.325Z,101307.06
2023-06-29T03:46:49.067Z,101301.78
2023-06-29T03:47:50.761Z,101308.88
2023-06-29T03:48:52.563Z,101303.59
2023-06-29T03:49:54.296Z,101308.91
2023-06-29T03:50:56.788Z,101302.78
2023-06-29T03:51:58.365Z,101302.84
2023-06-29T03:53:00.047Z,101294.91
2023-06-29T03:54:01.663Z,101305.63
2023-06-29T03:55:03.797Z,101302.16
2023-06-29T03:56:05.529Z,101304.81
2023-06-29T03:57:07.174Z,101301.28
2023-06-29T03:58:08.827Z,101304.88
2023-06-29T03:59:10.563Z,101302.31
2023-06-29T04:00:13.659Z,101305.03
2023-06-29T04:01:16.626Z,101304.16
2023-06-29T04:02:18.222Z,101304.25
2023-06-29T04:03:19.966Z,101309.66
2023-06-29T04:04:21.728Z,101316.84
2023-06-29T04:05:25.914Z,101320.44
2023-06-29T04:06:27.555Z,101311.66
2023-06-29T04:07:29.184Z,101314.31
2023-06-29T04:08:30.901Z,101315.22
2023-06-29T04:09:32.546Z,101322.25
2023-06-29T04:10:34.471Z,101318.72
2023-06-29T04:11:36.369Z,101318.72
2023-06-29T04:12:38.038Z,101319.69
2023-06-29T04:13:39.785Z,101320.69
2023-06-29T04:14:41.493Z,101316.28
2023-06-29T04:15:43.482Z,101312.78
2023-06-29T04:16:46.800Z,101312.81
2023-06-29T04:17:48.590Z,101319.06
2023-06-29T04:18:50.486Z,101317.31
2023-06-29T04:19:52.152Z,101313.81
2023-06-29T04:20:54.463Z,101309.44
2023-06-29T04:21:56.128Z,101301.44
2023-06-29T04:22:57.834Z,101308.56
2023-06-29T04:23:59.412Z,101307.66
2023-06-29T04:25:01.007Z,101308.56
2023-06-29T04:26:02.602Z,101311.19
2023-06-29T04:27:04.877Z,101315.66
2023-06-29T04:28:06.564Z,101306.78
2023-06-29T04:29:08.229Z,101311.28
2023-06-29T04:30:10.471Z,101311.31
2023-06-29T04:31:12.133Z,101313.09
2023-06-29T04:32:15.217Z,101313.13
2023-06-29T04:33:16.980Z,101304.28
2023-06-29T04:34:18.652Z,101308.75
2023-06-29T04:35:20.253Z,101306.97
2023-06-29T04:36:21.881Z,101315.03
2023-06-29T04:37:23.725Z,101310.50
2023-06-29T04:38:25.393Z,101309.63
2023-06-29T04:39:26.993Z,101302.56
2023-06-29T04:40:28.644Z,101296.34
2023-06-29T04:41:30.335Z,101300.75
2023-06-29T04:42:31.928Z,101299.84
2023-06-29T04:43:34.160Z,101297.19
2023-06-29T04:44:35.846Z,101308.81
2023-06-29T04:45:37.440Z,101306.94
2023-06-29T04:46:40.538Z,101308.72
2023-06-29T04:47:43.614Z,101308.59
2023-06-29T04:48:45.358Z,101312.13
2023-06-29T04:49:48.991Z,101314.00
2023-06-29T04:50:50.859Z,101302.47
2023-06-29T04:51:52.516Z,101306.94
2023-06-29T04:52:54.556Z,101305.25
2023-06-29T04:53:58.603Z,101306.16
2023-06-29T04:55:00.222Z,101302.63
2023-06-29T04:56:02.515Z,101299.94
2023-06-29T04:57:04.814Z,101304.41
2023-06-29T04:58:06.641Z,101300.84
2023-06-29T04:59:08.437Z,101297.28
2023-06-29T05:00:11.116Z,101288.41
2023-06-29T05:01:12.838Z,101294.59
2023-06-29T05:02:14.500Z,101304.34
2023-06-29T05:03:17.835Z,101294.56
2023-06-29T05:04:19.518Z,101300.78
2023-06-29T05:05:21.164Z,101299.88
2023-06-29T05:06:22.760Z,101299.00
2023-06-29T05:07:24.447Z,101294.53
2023-06-29T05:08:26.056Z,101301.63
2023-06-29T05:09:27.686Z,101297.16
2023-06-29T05:10:29.302Z,101296.25
2023-06-29T05:11:32.594Z,101297.09
2023-06-29T05:12:35.478Z,101297.94
2023-06-29T05:13:37.176Z,101298.78
2023-06-29T05:14:38.786Z,101296.09
2023-06-29T05:15:40.483Z,101299.66
2023-06-29T05:16:42.173Z,101294.31
2023-06-29T05:17:44.124Z,101293.38
2023-06-29T05:18:47.088Z,101296.88
2023-06-29T05:19:48.819Z,101287.94
2023-06-29T05:20:50.518Z,101295.91
2023-06-29T05:21:52.252Z,101295.00
2023-06-29T05:22:54.027Z,101289.69
2023-06-29T05:23:55.949Z,101289.63
2023-06-29T05:24:57.586Z,101291.41
2023-06-29T05:25:59.246Z,101293.22
2023-06-29T05:27:00.950Z,101290.59
2023-06-29T05:28:02.570Z,101290.56
2023-06-29T05:29:06.157Z,101295.03
2023-06-29T05:30:09.873Z,101294.09
2023-06-29T05:31:12.327Z,101295.19
2023-06-29T05:32:15.828Z,101295.25
2023-06-29T05:33:17.520Z,101297.16
2023-06-29T05:34:20.587Z,101303.47
2023-06-29T05:35:22.199Z,101295.50
2023-06-29T05:36:23.802Z,101306.16
2023-06-29T05:37:25.885Z,101299.91
2023-06-29T05:38:29.145Z,101297.22
2023-06-29T05:39:30.857Z,101299.88
2023-06-29T05:40:32.574Z,101297.25
2023-06-29T05:41:34.360Z,101298.09
2023-06-29T05:42:36.337Z,101300.72
2023-06-29T05:43:40.994Z,101293.47
2023-06-29T05:44:42.647Z,101285.34
2023-06-29T05:45:44.456Z,101286.09
2023-06-29T05:46:46.100Z,101297.56
2023-06-29T05:47:47.935Z,101298.34
2023-06-29T05:48:49.703Z,101295.59
2023-06-29T05:49:52.637Z,101289.34
2023-06-29T05:50:54.232Z,101290.41
2023-06-29T05:51:58.813Z,101288.53
2023-06-29T05:53:00.454Z,101291.03
2023-06-29T05:54:03.372Z,101283.81
2023-06-29T05:55:05.817Z,101293.66
2023-06-29T05:56:07.471Z,101298.13
2023-06-29T05:57:09.089Z,101296.59
2023-06-29T05:58:10.747Z,101298.59
2023-06-29T05:59:12.366Z,101292.38
2023-06-29T06:00:15.062Z,101295.13
2023-06-29T06:01:20.249Z,101291.81
2023-06-29T06:02:22.012Z,101298.00
2023-06-29T06:03:23.767Z,101290.81
2023-06-29T06:04:25.483Z,101293.31
2023-06-29T06:05:30.151Z,101293.16
2023-06-29T06:06:32.002Z,101294.84
2023-06-29T06:07:34.758Z,101293.84
2023-06-29T06:08:36.497Z,101292.34
2023-06-29T06:09:38.154Z,101287.84
2023-06-29T06:10:39.898Z,101290.50
2023-06-29T06:11:41.500Z,101301.00
2023-06-29T06:12:43.129Z,101298.22
2023-06-29T06:13:44.726Z,101296.34
2023-06-29T06:14:46.490Z,101297.13
2023-06-29T06:15:48.073Z,101294.34
2023-06-29T06:16:49.693Z,101297.88
2023-06-29T06:17:51.289Z,101301.34
2023-06-29T06:18:52.898Z,101299.53
2023-06-29T06:19:54.973Z,101293.16
2023-06-29T06:20:57.941Z,101285.84
2023-06-29T06:21:59.499Z,101293.81
2023-06-29T06:23:01.121Z,101295.56
2023-06-29T06:24:02.808Z,101294.66
2023-06-29T06:25:05.035Z,101303.91
2023-06-29T06:26:06.651Z,101302.97
2023-06-29T06:27:08.381Z,101303.78
2023-06-29T06:28:10.046Z,101303.13
2023-06-29T06:29:11.786Z,101296.75
2023-06-29T06:30:13.640Z,101293.94
2023-06-29T06:31:32.077Z,101296.19
2023-06-29T06:32:35.227Z,101304.53
2023-06-29T06:33:36.862Z,101302.63
2023-06-29T06:34:38.602Z,101309.06
2023-06-29T06:35:40.352Z,101305.44
2023-06-29T06:36:43.441Z,101305.34
2023-06-29T06:37:45.117Z,101301.09
2023-06-29T06:38:49.875Z,101296.75
2023-06-29T06:39:51.968Z,101299.44
2023-06-29T06:40:53.694Z,101298.25
2023-06-29T06:41:55.394Z,101297.41
2023-06-29T06:42:58.985Z,101302.56
2023-06-29T06:44:04.071Z,101301.34
2023-06-29T06:45:07.381Z,101300.53
2023-06-29T06:46:09.475Z,101301.47
2023-06-29T06:47:11.208Z,101295.22
2023-06-29T06:48:12.864Z,101306.06
2023-06-29T06:49:14.698Z,101296.53
2023-06-29T06:50:16.448Z,101300.28
2023-06-29T06:51:18.195Z,101301.19
2023-06-29T06:52:21.149Z,101305.50
2023-06-29T06:53:22.766Z,101301.00
2023-06-29T06:54:24.390Z,101301.84
2023-06-29T06:55:26.000Z,101300.63
2023-06-29T06:56:27.717Z,101301.31
2023-06-29T06:57:29.322Z,101301.53
2023-06-29T06:58:30.958Z,101300.63
2023-06-29T06:59:32.682Z,101302.16
2023-06-29T07:00:34.409Z,101289.47
2023-06-29T07:01:41.261Z,101282.13
2023-06-29T07:02:42.970Z,101286.44
2023-06-29T07:03:44.655Z,101293.00
2023-06-29T07:04:46.287Z,101288.13
2023-06-29T07:05:47.971Z,101289.56
2023-06-29T07:06:49.675Z,101289.34
2023-06-29T07:07:52.751Z,101287.34
2023-06-29T07:08:54.370Z,101298.72
2023-06-29T07:09:56.017Z,101291.31
2023-06-29T07:11:00.175Z,101290.16
2023-06-29T07:12:02.946Z,101289.34
2023-06-29T07:13:04.572Z,101293.06
2023-06-29T07:14:09.118Z,101293.69
2023-06-29T07:15:10.859Z,101292.78
2023-06-29T07:16:12.474Z,101290.38
2023-06-29T07:17:14.206Z,101296.22
2023-06-29T07:18:18.028Z,101287.81
2023-06-29T07:21:30.995Z,101285.38
2023-06-29T07:24:44.565Z,101278.16
2023-06-29T07:25:47.903Z,101280.81
2023-06-29T07:26:49.645Z,101282.28
2023-06-29T07:27:51.445Z,101284.47
2023-06-29T07:28:53.622Z,101278.19
2023-06-29T07:29:55.259Z,101285.56
2023-06-29T07:30:58.123Z,101272.75
2023-06-29T07:32:00.090Z,101280.31
2023-06-29T07:33:01.713Z,101275.44
2023-06-29T07:34:03.694Z,101281.91
2023-06-29T07:35:07.204Z,101277.84
2023-06-29T07:36:09.488Z,101274.56
2023-06-29T07:37:11.361Z,101279.97
2023-06-29T07:38:13.765Z,101276.06
2023-06-29T07:39:17.219Z,101268.75
2023-06-29T07:40:18.952Z,101271.31
2023-06-29T07:41:24.386Z,101268.97
2023-06-29T07:42:38.846Z,101270.19
2023-06-29T07:43:41.621Z,101271.78
2023-06-29T07:44:43.892Z,101276.75
2023-06-29T07:45:46.062Z,101274.53
2023-06-29T07:46:47.940Z,101271.19
2023-06-29T07:47:49.725Z,101267.97
2023-06-29T07:48:52.390Z,101272.75
2023-06-29T07:49:54.090Z,101276.25
2023-06-29T07:50:55.800Z,101278.53
2023-06-29T07:51:58.372Z,101269.06
2023-06-29T07:53:00.021Z,101268.78
2023-06-29T07:54:01.748Z,101269.78
2023-06-29T07:55:05.419Z,101272.59
2023-06-29T07:56:07.095Z,101273.06
2023-06-29T07:59:18.165Z,101260.25
2023-06-29T08:00:20.157Z,101259.00
2023-06-29T08:01:21.813Z,101265.88
2023-06-29T08:02:23.528Z,101267.69
2023-06-29T08:03:25.261Z,101271.00
2023-06-29T08:07:40.726Z,101273.34
2023-06-29T08:08:42.531Z,101272.50
2023-06-29T08:09:44.396Z,101271.66
2023-06-29T08:10:47.769Z,101267.56
2023-06-29T08:11:49.441Z,101266.25
2023-06-29T08:12:51.065Z,101265.00
2023-06-29T08:13:52.898Z,101270.84
2023-06-29T08:14:54.470Z,101275.06
2023-06-29T08:15:56.201Z,101278.28
2023-06-29T08:16:57.834Z,101275.03
2023-06-29T08:17:59.576Z,101269.47
2023-06-29T08:19:01.350Z,101272.38
2023-06-29T08:20:04.168Z,101264.31
2023-06-29T08:21:05.840Z,101272.44
2023-06-29T08:22:07.472Z,101275.16
2023-06-29T08:23:09.044Z,101273.44
2023-06-29T08:24:10.668Z,101275.53
2023-06-29T08:25:12.498Z,101270.41
2023-06-29T08:26:15.744Z,101271.66
2023-06-29T08:27:18.585Z,101260.94
2023-06-29T08:28:20.271Z,101261.44
2023-06-29T08:29:21.954Z,101258.03
2023-06-29T08:30:23.599Z,101262.00
2023-06-29T08:31:25.430Z,101255.50
2023-06-29T08:32:27.285Z,101260.13
2023-06-29T08:33:29.110Z,101261.44
2023-06-29T08:34:30.749Z,101264.78
2023-06-29T08:35:32.333Z,101269.91
2023-06-29T08:36:34.664Z,101261.63
2023-06-29T08:37:36.415Z,101252.88
2023-06-29T08:38:39.568Z,101254.47
2023-06-29T08:39:41.635Z,101255.78
2023-06-29T08:40:46.305Z,101256.88
2023-06-29T08:41:49.392Z,101259.00
2023-06-29T08:42:51.308Z,101257.03
2023-06-29T08:43:53.068Z,101256.44
2023-06-29T08:44:54.924Z,101256.47
2023-06-29T08:45:56.632Z,101254.13
2023-06-29T08:47:00.615Z,101256.19
2023-06-29T08:48:03.159Z,101247.84
2023-06-29T08:49:08.099Z,101252.38
2023-06-29T08:50:11.162Z,101254.84
2023-06-29T08:51:15.363Z,101251.06
2023-06-29T08:52:17.993Z,101249.66
2023-06-29T08:53:21.814Z,101247.25
2023-06-29T08:54:23.832Z,101250.69
2023-06-29T08:55:26.310Z,101243.56
2023-06-29T08:56:29.024Z,101257.28
2023-06-29T08:57:32.775Z,101245.03
2023-06-29T08:58:34.431Z,101245.22
2023-06-29T08:59:38.212Z,101250.38
2023-06-29T09:00:41.188Z,101240.88
2023-06-29T09:01:44.098Z,101241.13
2023-06-29T09:02:46.110Z,101236.81
2023-06-29T09:03:49.848Z,101236.84
2023-06-29T09:04:51.790Z,101240.31
2023-06-29T09:05:53.793Z,101242.31
2023-06-29T09:06:55.484Z,101239.13
2023-06-29T09:07:57.204Z,101236.22
2023-06-29T09:08:59.810Z,101236.94
2023-06-29T09:10:01.479Z,101236.00
2023-06-29T09:11:03.177Z,101235.28
2023-06-29T09:12:05.818Z,101239.34
2023-06-29T09:13:08.794Z,101233.38
2023-06-29T09:15:12.475Z,101231.94
2023-06-29T09:16:16.708Z,101245.03
2023-06-29T09:17:19.192Z,101234.69
2023-06-29T09:18:21.831Z,101233.84
2023-06-29T09:19:23.501Z,101242.81
2023-06-29T09:20:25.422Z,101232.44
2023-06-29T09:21:27.475Z,101232.63
2023-06-29T09:22:29.147Z,101236.22
2023-06-29T09:23:30.730Z,101238.28
2023-06-29T09:24:34.296Z,101235.91
2023-06-29T09:25:39.770Z,101230.50
2023-06-29T09:26:41.716Z,101235.03
2023-06-29T09:27:43.486Z,101231.81
2023-06-29T09:28:47.486Z,101236.50
2023-06-29T09:29:52.966Z,101233.56
2023-06-29T09:30:54.715Z,101232.78
2023-06-29T09:31:57.142Z,101233.38
2023-06-29T09:33:06.235Z,101219.97
2023-06-29T09:34:17.721Z,101225.97
2023-06-29T09:35:22.691Z,101228.13
2023-06-29T09:36:25.488Z,101230.25
2023-06-29T09:37:27.197Z,101229.81
2023-06-29T09:38:31.342Z,101221.63
2023-06-29T09:39:32.975Z,101232.47
2023-06-29T09:40:47.533Z,101218.59
2023-06-29T09:41:50.269Z,101224.59
2023-06-29T09:42:51.913Z,101220.03
2023-06-29T09:43:54.980Z,101214.50
2023-06-29T09:45:00.373Z,101220.03
2023-06-29T09:46:06.731Z,101214.72
2023-06-29T09:49:18.233Z,101217.31
2023-06-29T09:50:21.182Z,101210.66
2023-06-29T09:51:24.099Z,101214.56
2023-06-29T09:52:26.032Z,101212.09
2023-06-29T09:53:31.722Z,101214.13
2023-06-29T09:54:35.322Z,101207.34
2023-06-29T09:55:37.459Z,101215.13
2023-06-29T09:56:39.146Z,101212.13
2023-06-29T09:57:41.858Z,101214.81
2023-06-29T09:58:43.652Z,101214.09
2023-06-29T09:59:46.681Z,101214.09
2023-06-29T10:00:48.534Z,101212.63
2023-06-29T10:01:50.246Z,101203.31
2023-06-29T10:02:51.972Z,101205.09
2023-06-29T10:03:53.628Z,101210.44
2023-06-29T10:04:55.273Z,101200.06
2023-06-29T10:06:02.245Z,101203.22
2023-06-29T10:07:06.794Z,101201.44
2023-06-29T10:08:11.948Z,101198.78
2023-06-29T10:09:17.699Z,101198.69
2023-06-29T10:10:21.250Z,101201.63
2023-06-29T10:11:27.736Z,101207.59
2023-06-29T10:12:29.641Z,101203.66
2023-06-29T10:13:38.036Z,101201.38
2023-06-29T10:14:44.361Z,101201.16
2023-06-29T10:15:52.138Z,101206.59
2023-06-29T10:16:56.662Z,101200.28
2023-06-29T10:18:03.998Z,101201.19
2023-06-29T10:19:13.277Z,101196.72
2023-06-29T10:20:17.421Z,101204.28
2023-06-29T10:21:19.310Z,101199.94
2023-06-29T10:22:22.146Z,101197.19
2023-06-29T10:23:27.226Z,101193.97
2023-06-29T10:24:32.749Z,101192.19
2023-06-29T10:25:38.015Z,101193.22
2023-06-29T10:26:40.988Z,101189.72
2023-06-29T10:27:43.896Z,101185.88
2023-06-29T10:28:45.914Z,101187.19
2023-06-29T10:29:49.165Z,101187.72
2023-06-29T10:30:58.803Z,101182.09
2023-06-29T10:32:00.517Z,101179.59
2023-06-29T10:33:05.309Z,101182.81
2023-06-29T10:34:07.828Z,101186.53
2023-06-29T10:35:10.389Z,101173.47
2023-06-29T10:36:14.161Z,101177.13
2023-06-29T10:37:30.733Z,101175.72
2023-06-29T10:38:32.886Z,101177.78
2023-06-29T10:39:40.431Z,101173.56
2023-06-29T10:40:49.362Z,101170.22
2023-06-29T10:41:50.980Z,101167.00
2023-06-29T10:42:54.665Z,101170.31
2023-06-29T10:43:56.869Z,101171.66
2023-06-29T10:44:58.509Z,101169.44
2023-06-29T10:46:01.706Z,101161.81
2023-06-29T10:47:04.130Z,101165.41
2023-06-29T10:48:07.993Z,101160.34
2023-06-29T10:49:20.918Z,101166.00
2023-06-29T10:50:22.816Z,101165.38
2023-06-29T10:51:24.411Z,101166.28
2023-06-29T10:52:26.125Z,101166.91
2023-06-29T10:53:30.060Z,101173.06
2023-06-29T10:54:32.780Z,101163.81
2023-06-29T10:55:46.597Z,101167.25
2023-06-29T10:56:57.047Z,101163.97
2023-06-29T10:58:00.606Z,101160.00
2023-06-29T10:59:02.343Z,101165.56
2023-06-29T11:00:05.249Z,101156.81
2023-06-29T11:01:09.073Z,101161.41
2023-06-29T11:02:11.011Z,101159.66
2023-06-29T11:03:13.736Z,101163.59
2023-06-29T11:04:15.863Z,101147.06
2023-06-29T11:05:19.621Z,101156.25
2023-06-29T11:07:43.338Z,101144.09
2023-06-29T11:08:48.674Z,101150.72
2023-06-29T11:10:00.253Z,101147.06
2023-06-29T11:11:13.479Z,101154.06
2023-06-29T11:12:16.916Z,101154.00
2023-06-29T11:13:19.740Z,101150.25
2023-06-29T11:14:21.997Z,101145.72
2023-06-29T11:15:24.611Z,101136.84
2023-06-29T11:16:28.228Z,101141.31
2023-06-29T11:17:30.018Z,101147.41
2023-06-29T11:18:31.918Z,101136.53
2023-06-29T11:19:33.727Z,101144.22
2023-06-29T11:20:38.388Z,101135.56
2023-06-29T11:21:40.014Z,101136.91
2023-06-29T11:22:41.718Z,101128.84
2023-06-29T11:23:50.079Z,101127.56
2023-06-29T11:24:51.762Z,101128.47
2023-06-29T11:25:53.469Z,101122.94
2023-06-29T11:26:55.225Z,101118.63
2023-06-29T11:27:57.998Z,101116.13
2023-06-29T11:28:59.569Z,101115.50
2023-06-29T11:30:06.816Z,101125.63
2023-06-29T11:31:08.777Z,101122.44
2023-06-29T11:32:13.613Z,101120.72
2023-06-29T11:34:37.235Z,101108.53
2023-06-29T11:35:43.224Z,101116.34
2023-06-29T11:38:06.601Z,101119.16
2023-06-29T11:39:09.954Z,101125.88
2023-06-29T11:40:19.871Z,101110.78
2023-06-29T11:41:21.476Z,101113.09
2023-06-29T11:42:25.398Z,101113.06
2023-06-29T11:44:29.623Z,101106.16
2023-06-29T11:45:34.385Z,101101.03
2023-06-29T11:46:36.783Z,101097.78
2023-06-29T11:47:39.949Z,101100.47
2023-06-29T11:48:41.642Z,101104.38
2023-06-29T11:49:43.530Z,101100.44
2023-06-29T11:50:45.162Z,101092.59
2023-06-29T11:51:47.236Z,101091.75
2023-06-29T11:52:49.708Z,101091.84
2023-06-29T11:53:51.593Z,101095.16
2023-06-29T11:54:53.420Z,101092.69
2023-06-29T11:55:55.044Z,101094.66
2023-06-29T11:56:56.692Z,101094.25
2023-06-29T11:58:00.542Z,101091.44
2023-06-29T11:59:05.115Z,101088.44
2023-06-29T12:00:25.886Z,101079.84
2023-06-29T12:02:34.294Z,101082.22
2023-06-29T12:03:38.690Z,101084.50
2023-06-29T12:04:53.673Z,101081.94
2023-06-29T12:06:00.093Z,101076.72
2023-06-29T12:07:01.821Z,101075.28
2023-06-29T12:08:08.351Z,101068.97
2023-06-29T12:09:13.071Z,101060.09
2023-06-29T12:10:19.803Z,101054.03
2023-06-29T12:11:22.898Z,101059.72
2023-06-29T12:12:24.951Z,101056.00
2023-06-29T12:13:26.610Z,101058.50
2023-06-29T12:14:28.585Z,101051.66
2023-06-29T12:15:32.627Z,101053.53